Terminal Aerodrome Forecast
Issued by NWS Twin Cities, MN

Home | Current Version | Previous Version | Text Only | Print | Product List | Glossary Off
Versions: 1 2 3 4 5 6 7 8 9 10 11 12 13 14 15 16 17 18 19 20 21 22 23 24 25 26 27 28 29 30 31 32

477
FTUS43 KMPX 231120
TAFMSP
TAF
KMSP 231120Z 2312/2418 15013KT P6SM OVC070
     FM231600 14013G19KT P6SM BKN030 OVC050
     FM231900 15010KT P6SM VCSH OVC015
     FM232300 14008KT 5SM -SHRA OVC012
     FM240100 14007KT 6SM -SHRA OVC008
     FM240600 09004KT 2SM SHRA BR OVC008
     FM241000 04005KT 3SM -RA BR OVC008=

USA.gov is the U.S. government's official web portal to all federal, state and local government web resources and services.